Time;durP1;ratioP1;P1;durP2;ratioP2;P2;SDS_P1;SDS_P2;PMS_P1;PMS_P2;Temp;Humidity;BMP_temperature;BMP_pressure;BME280_temperature;BME280_humidity;BME280_pressure;Samples;Min_cycle;Max_cycle;Signal;HPM_P1;HPM_P2
2024/04/02 00:00:46;;;;;;;1.60;1.10;;;;;;;8.68;75.36;99455.94;2478835;28;20028;-80
2024/04/02 00:01:59;;;;;;;1.45;0.85;;;;;;;8.71;75.46;99465.44;2483489;28;20114;-79
2024/04/02 00:03:13;;;;;;;2.88;1.52;;;;;;;8.72;75.36;99457.59;2477855;28;20063;-81
2024/04/02 00:04:26;;;;;;;1.05;0.90;;;;;;;8.73;75.12;99459.31;2471465;29;20666;-79
2024/04/02 00:05:40;;;;;;;0.55;0.50;;;;;;;8.76;74.88;99458.38;2469490;28;20024;-80
2024/04/02 00:06:54;;;;;;;1.77;0.75;;;;;;;8.79;75.17;99470.47;2474086;28;20051;-81
2024/04/02 00:08:08;;;;;;;0.63;0.60;;;;;;;8.80;75.02;99464.38;2477372;29;20546;-81
2024/04/02 00:09:21;;;;;;;1.05;0.80;;;;;;;8.81;74.12;99471.31;2490442;28;20039;-80
2024/04/02 00:10:37;;;;;;;1.55;0.90;;;;;;;8.84;74.21;99471.22;2469228;28;20081;-81
2024/04/02 00:11:51;;;;;;;1.65;1.15;;;;;;;8.86;74.65;99464.25;2482272;23;20051;-77
2024/04/02 00:13:04;;;;;;;1.40;0.90;;;;;;;8.86;74.61;99469.47;2490701;28;20473;-78
2024/04/02 00:14:17;;;;;;;1.17;0.70;;;;;;;8.87;74.54;99472.03;2481293;28;20044;-76
2024/04/02 00:15:31;;;;;;;1.00;0.85;;;;;;;8.86;74.35;99467.72;2486168;28;20019;-77
2024/04/02 00:16:44;;;;;;;1.13;0.77;;;;;;;8.86;74.56;99474.66;2490581;29;20039;-76
2024/04/02 00:18:01;;;;;;;1.15;0.77;;;;;;;8.84;74.37;99479.03;2490326;28;20188;-76
2024/04/02 00:19:15;;;;;;;1.30;1.05;;;;;;;8.82;74.80;99483.41;2481317;29;20082;-77
2024/04/02 00:20:28;;;;;;;1.25;0.65;;;;;;;8.81;73.95;99481.72;2486021;29;20031;-77
2024/04/02 00:21:41;;;;;;;1.73;0.63;;;;;;;8.80;73.98;99495.59;2490983;28;20412;-76
2024/04/02 00:22:54;;;;;;;5.90;0.80;;;;;;;8.78;74.10;99495.63;2481798;29;20071;-75
2024/04/02 00:24:08;;;;;;;0.77;0.60;;;;;;;8.76;73.95;99487.00;2485609;29;20563;-77
2024/04/02 00:25:21;;;;;;;1.15;1.05;;;;;;;8.76;74.25;99496.56;2491763;28;20060;-76
2024/04/02 00:26:34;;;;;;;0.47;0.38;;;;;;;8.76;74.61;99502.59;2491609;28;20035;-77
2024/04/02 00:27:47;;;;;;;2.15;0.75;;;;;;;8.76;74.30;99496.56;2491523;29;20027;-77
2024/04/02 00:29:01;;;;;;;0.80;0.80;;;;;;;8.78;74.59;99507.75;2491702;29;20058;-76
2024/04/02 00:30:27;;;;;;;2.70;1.00;;;;;;;8.78;74.73;99500.84;2492157;28;20515;-77
2024/04/02 00:31:41;;;;;;;0.75;0.73;;;;;;;8.79;74.25;99504.28;2492462;28;20028;-77
2024/04/02 00:32:55;;;;;;;2.78;0.95;;;;;;;8.80;74.46;99498.19;2491781;29;20058;-77
2024/04/02 00:34:08;;;;;;;0.98;0.77;;;;;;;8.81;74.43;99505.13;2485299;28;20476;-77
2024/04/02 00:35:22;;;;;;;1.38;0.70;;;;;;;8.81;74.20;99499.94;2485365;29;20118;-78
2024/04/02 00:36:35;;;;;;;1.50;0.70;;;;;;;8.81;73.95;99505.13;2481777;29;20030;-77
2024/04/02 00:37:49;;;;;;;2.30;0.63;;;;;;;8.80;74.15;99495.59;2516573;28;20767;-77
2024/04/02 00:39:03;;;;;;;1.23;0.85;;;;;;;8.79;74.13;99501.69;2491397;29;20061;-77
2024/04/02 00:40:17;;;;;;;0.73;0.70;;;;;;;8.78;74.48;99503.44;2491549;29;20027;-77
2024/04/02 00:41:30;;;;;;;0.88;0.80;;;;;;;8.78;74.09;99502.56;2477971;28;20488;-77
2024/04/02 00:42:45;;;;;;;0.52;0.52;;;;;;;8.79;73.16;99509.50;2483512;28;20144;-77
2024/04/02 00:43:58;;;;;;;1.40;1.30;;;;;;;8.79;73.32;99502.53;2475886;28;20036;-76
2024/04/02 00:45:12;;;;;;;1.27;1.17;;;;;;;8.79;73.60;99506.91;2484242;29;20106;-77
2024/04/02 00:46:25;;;;;;;0.70;0.70;;;;;;;8.79;73.12;99510.34;2487731;28;20035;-78
2024/04/02 00:47:42;;;;;;;0.90;0.90;;;;;;;8.79;73.31;99510.34;2485275;29;20118;-78
2024/04/02 00:48:55;;;;;;;1.92;1.02;;;;;;;8.80;72.73;99511.19;2485415;29;20424;-77
2024/04/02 00:50:12;;;;;;;2.10;0.68;;;;;;;8.82;73.46;99512.03;2491149;29;20031;-77
2024/04/02 00:51:25;;;;;;;0.95;0.82;;;;;;;8.82;73.88;99504.22;2491497;29;20427;-76
2024/04/02 00:52:41;;;;;;;1.55;1.02;;;;;;;8.82;73.61;99512.88;2495210;28;20053;-77
2024/04/02 00:53:55;;;;;;;1.38;0.95;;;;;;;8.83;73.78;99516.34;2483869;28;20090;-78
2024/04/02 00:55:08;;;;;;;2.92;0.80;;;;;;;8.83;73.33;99511.13;2481800;29;20019;-78
2024/04/02 00:56:21;;;;;;;0.70;0.70;;;;;;;8.85;73.31;99520.63;2484747;28;20025;-77
2024/04/02 00:57:34;;;;;;;1.45;1.35;;;;;;;8.86;73.29;99521.50;2477698;29;20070;-76
2024/04/02 00:58:48;;;;;;;3.25;1.08;;;;;;;8.85;73.15;99520.63;2487259;28;20165;-78
2024/04/02 01:00:01;;;;;;;5.07;0.90;;;;;;;8.86;73.42;99522.34;2491105;29;20042;-77
2024/04/02 01:01:14;;;;;;;2.45;1.00;;;;;;;8.87;73.12;99518.00;2490178;29;20023;-77
2024/04/02 01:02:28;;;;;;;2.13;1.33;;;;;;;8.86;73.47;99524.09;2487661;28;20046;-77
2024/04/02 01:03:41;;;;;;;2.50;0.75;;;;;;;8.85;73.32;99522.38;2481904;29;20040;-78
2024/04/02 01:04:54;;;;;;;1.75;1.63;;;;;;;8.84;73.42;99524.13;2479009;28;20117;-78
2024/04/02 01:06:07;;;;;;;0.55;0.55;;;;;;;8.85;73.31;99530.19;2484693;29;20110;-77
2024/04/02 01:07:21;;;;;;;1.17;0.80;;;;;;;8.85;73.15;99530.19;2489279;29;20548;-77
2024/04/02 01:08:34;;;;;;;0.77;0.77;;;;;;;8.84;73.29;99525.88;2485053;28;20439;-78
2024/04/02 01:09:47;;;;;;;0.75;0.70;;;;;;;8.83;72.94;99535.44;2490590;28;20019;-77
2024/04/02 01:11:01;;;;;;;0.60;0.60;;;;;;;8.82;72.83;99527.63;2491741;29;20080;-78
2024/04/02 01:12:14;;;;;;;0.75;0.75;;;;;;;8.82;72.37;99535.44;2501022;28;20471;-78
2024/04/02 01:13:27;;;;;;;0.95;0.73;;;;;;;8.82;72.47;99540.66;2488468;29;20412;-76
2024/04/02 01:14:41;;;;;;;0.98;0.95;;;;;;;8.83;72.71;99543.22;2490752;28;20118;-78
2024/04/02 01:16:02;;;;;;;3.83;0.73;;;;;;;8.84;72.83;99544.09;2475382;29;20027;-78
2024/04/02 01:17:17;;;;;;;1.13;0.77;;;;;;;8.84;72.90;99549.28;2486185;29;20114;-77
2024/04/02 01:18:30;;;;;;;2.78;0.73;;;;;;;8.84;72.55;99550.13;2480659;28;20090;-77
2024/04/02 01:19:43;;;;;;;0.73;0.73;;;;;;;8.85;72.65;99551.00;2484707;29;20027;-77
2024/04/02 01:20:56;;;;;;;1.40;0.85;;;;;;;8.84;72.73;99549.28;2491707;29;20391;-78
2024/04/02 01:22:10;;;;;;;1.02;1.00;;;;;;;8.85;72.51;99545.78;2491136;28;20062;-77
2024/04/02 01:23:23;;;;;;;1.35;1.08;;;;;;;8.86;72.80;99552.72;2492094;29;20110;-77
2024/04/02 01:24:36;;;;;;;9.25;2.15;;;;;;;8.86;72.53;99558.78;2491213;29;20431;-78
2024/04/02 01:25:49;;;;;;;0.80;0.80;;;;;;;8.87;72.70;99559.63;2525893;28;20021;-77
2024/04/02 01:27:03;;;;;;;1.75;1.13;;;;;;;8.86;72.49;99553.56;2472633;29;20017;-77
2024/04/02 01:28:16;;;;;;;1.63;1.15;;;;;;;8.87;72.52;99552.69;2478691;28;20019;-76
2024/04/02 01:29:29;;;;;;;0.73;0.73;;;;;;;8.86;72.66;99550.13;2478281;29;20082;-78
2024/04/02 01:30:43;;;;;;;3.58;1.23;;;;;;;8.86;72.39;99553.56;2476659;28;20115;-78
2024/04/02 01:31:56;;;;;;;1.38;1.27;;;;;;;8.84;72.08;99560.53;2484933;28;20049;-77
2024/04/02 01:33:09;;;;;;;1.15;0.80;;;;;;;8.84;71.95;99559.69;2490894;29;20093;-78
2024/04/02 01:34:22;;;;;;;1.05;0.80;;;;;;;8.83;72.25;99560.56;2477132;28;20115;-77
2024/04/02 01:35:36;;;;;;;0.93;0.80;;;;;;;8.82;72.39;99559.72;2485039;29;20808;-78
2024/04/02 01:36:49;;;;;;;1.27;0.90;;;;;;;8.81;72.54;99560.63;2484216;28;20102;-78
2024/04/02 01:38:03;;;;;;;0.70;0.70;;;;;;;8.81;72.55;99560.63;2490981;29;20047;-77
2024/04/02 01:39:16;;;;;;;3.45;1.10;;;;;;;8.81;72.45;99560.63;2491061;29;20019;-76
2024/04/02 01:40:29;;;;;;;0.90;0.88;;;;;;;8.81;72.48;99564.97;2481408;29;20463;-77
2024/04/02 01:41:42;;;;;;;2.42;1.15;;;;;;;8.80;72.27;99560.63;2519616;28;20017;-77
2024/04/02 01:42:55;;;;;;;2.40;0.90;;;;;;;8.80;72.76;99563.22;2484871;28;20023;-77
2024/04/02 01:44:09;;;;;;;0.70;0.60;;;;;;;8.80;72.77;99571.03;2494516;28;20061;-77
2024/04/02 01:45:22;;;;;;;3.33;0.90;;;;;;;8.81;72.72;99568.41;2489193;28;20012;-77
2024/04/02 01:46:35;;;;;;;1.45;0.80;;;;;;;8.81;72.69;99570.16;2484246;29;20039;-77
2024/04/02 01:47:48;;;;;;;1.23;1.13;;;;;;;8.81;72.39;99571.00;2490697;28;20019;-78
2024/04/02 01:49:02;;;;;;;1.75;1.08;;;;;;;8.82;72.38;99566.66;2491736;28;20194;-77
2024/04/02 01:50:15;;;;;;;2.65;1.23;;;;;;;8.82;72.57;99571.88;2496044;28;20086;-78
2024/04/02 01:51:28;;;;;;;0.68;0.68;;;;;;;8.82;72.54;99572.72;2499219;28;20054;-77
2024/04/02 01:52:41;;;;;;;0.68;0.68;;;;;;;8.82;72.71;99572.72;2484561;29;20027;-76
2024/04/02 01:53:55;;;;;;;1.65;0.80;;;;;;;8.82;72.36;99574.47;2483690;28;20023;-76
2024/04/02 01:55:08;;;;;;;0.98;0.95;;;;;;;8.83;72.67;99568.38;2490797;29;20019;-76
2024/04/02 01:56:21;;;;;;;3.80;0.93;;;;;;;8.83;72.34;99576.16;2516480;28;20013;-77
2024/04/02 01:57:34;;;;;;;2.50;1.00;;;;;;;8.82;72.35;99574.47;2502328;28;20046;-76
2024/04/02 01:58:48;;;;;;;2.53;1.15;;;;;;;8.82;72.47;99571.88;2490399;28;20035;-77
2024/04/02 02:00:02;;;;;;;0.90;0.75;;;;;;;8.82;72.63;99572.72;2490923;29;20541;-77
2024/04/02 02:01:15;;;;;;;1.27;0.95;;;;;;;8.83;72.44;99579.66;2485766;28;20133;-77
2024/04/02 02:02:28;;;;;;;1.17;0.88;;;;;;;8.84;72.44;99575.31;2486839;28;20500;-77
2024/04/02 02:03:41;;;;;;;2.05;1.13;;;;;;;8.84;72.35;99580.50;2491357;29;20050;-78
2024/04/02 02:04:55;;;;;;;1.15;0.90;;;;;;;8.85;72.30;99582.22;2491563;29;20110;-76
2024/04/02 02:06:08;;;;;;;1.42;0.93;;;;;;;8.86;72.19;99581.34;2491285;28;20522;-76
2024/04/02 02:07:21;;;;;;;2.97;1.13;;;;;;;8.86;71.76;99576.13;2490780;29;20019;-76
2024/04/02 02:08:34;;;;;;;6.28;1.40;;;;;;;8.87;72.00;99580.44;2491194;29;20055;-76
2024/04/02 02:09:47;;;;;;;1.70;0.80;;;;;;;8.87;71.83;99580.44;2489965;28;20026;-77
2024/04/02 02:11:03;;;;;;;2.97;1.10;;;;;;;8.86;71.65;99579.59;2474995;28;20028;-76
2024/04/02 02:12:16;;;;;;;0.88;0.88;;;;;;;8.85;71.78;99577.84;2481039;28;20102;-77
2024/04/02 02:13:34;;;;;;;1.42;1.30;;;;;;;8.85;71.97;99584.81;2488159;29;20061;-77
2024/04/02 02:14:47;;;;;;;1.90;0.75;;;;;;;8.85;71.96;99585.66;2492028;28;20027;-76
2024/04/02 02:16:01;;;;;;;3.90;1.10;;;;;;;8.84;71.34;99590.91;2490794;29;20077;-76
2024/04/02 02:17:14;;;;;;;0.70;0.70;;;;;;;8.84;71.73;99596.97;2490132;29;20077;-76
2024/04/02 02:18:30;;;;;;;0.63;0.63;;;;;;;8.84;71.93;99588.31;2484018;28;20110;-76
2024/04/02 02:19:44;;;;;;;0.93;0.68;;;;;;;8.85;71.88;99590.03;2490845;29;20026;-77
2024/04/02 02:20:58;;;;;;;0.77;0.75;;;;;;;8.86;72.04;99595.22;2490887;29;20023;-76
2024/04/02 02:22:11;;;;;;;1.50;0.98;;;;;;;8.87;71.91;99601.25;2489905;29;20500;-76
2024/04/02 02:23:25;;;;;;;1.42;0.73;;;;;;;8.86;71.85;99596.97;2491073;29;20093;-77
2024/04/02 02:24:39;;;;;;;2.33;0.77;;;;;;;8.86;72.21;99587.41;2500391;28;20022;-77
2024/04/02 02:25:52;;;;;;;1.80;1.45;;;;;;;8.88;72.11;99601.25;2480356;28;20020;-76
2024/04/02 02:27:05;;;;;;;3.70;1.00;;;;;;;8.86;72.35;99594.34;2488053;28;20093;-76
2024/04/02 02:28:19;;;;;;;2.58;0.98;;;;;;;8.86;72.19;99591.75;2497280;28;20015;-76
2024/04/02 02:29:32;;;;;;;2.38;0.85;;;;;;;8.86;72.25;99596.97;2490514;29;20519;-77
2024/04/02 02:30:46;;;;;;;8.82;1.40;;;;;;;8.84;72.36;99603.91;2475825;29;20594;-77
2024/04/02 02:31:59;;;;;;;1.40;0.65;;;;;;;8.82;72.59;99597.88;2484238;29;20027;-76
2024/04/02 02:33:12;;;;;;;1.60;0.93;;;;;;;8.79;72.45;99604.00;2491006;28;20019;-76
2024/04/02 02:34:26;;;;;;;2.05;1.33;;;;;;;8.77;72.55;99591.91;2490321;29;20031;-77
2024/04/02 02:35:39;;;;;;;1.58;0.80;;;;;;;8.76;72.54;99598.00;2491007;29;20027;-76
2024/04/02 02:36:53;;;;;;;1.05;0.85;;;;;;;8.71;72.57;99592.88;2490498;29;20106;-76
2024/04/02 02:38:06;;;;;;;1.48;0.95;;;;;;;8.68;72.82;99601.59;2490121;29;20043;-76
2024/04/02 02:39:19;;;;;;;2.80;1.10;;;;;;;8.64;72.99;99599.91;2484134;29;20051;-76
2024/04/02 02:40:32;;;;;;;0.80;0.80;;;;;;;8.60;73.07;99600.88;2484349;29;20030;-76
2024/04/02 02:41:46;;;;;;;0.75;0.70;;;;;;;8.59;73.08;99608.69;2480293;29;20042;-76
2024/04/02 02:43:00;;;;;;;1.58;0.98;;;;;;;8.56;73.73;99606.16;2467497;28;20059;-76
2024/04/02 02:44:13;;;;;;;1.15;0.90;;;;;;;8.52;73.50;99601.00;2478613;28;20475;-77
2024/04/02 02:45:26;;;;;;;2.25;1.10;;;;;;;8.51;73.53;99606.22;2484383;29;20519;-77
2024/04/02 02:46:39;;;;;;;0.75;0.70;;;;;;;8.49;73.78;99606.28;2490454;29;20082;-76
2024/04/02 02:47:53;;;;;;;1.10;0.80;;;;;;;8.49;73.81;99610.59;2481541;28;20059;-77
2024/04/02 02:49:06;;;;;;;6.50;1.08;;;;;;;8.49;73.83;99605.38;2483816;29;20019;-76
2024/04/02 02:50:19;;;;;;;1.27;1.15;;;;;;;8.47;74.09;99599.38;2490335;29;20081;-76
2024/04/02 02:51:32;;;;;;;0.88;0.88;;;;;;;8.46;74.07;99610.66;2481108;29;20032;-76
2024/04/02 02:52:46;;;;;;;3.30;1.10;;;;;;;8.46;73.88;99606.28;2484479;28;20054;-77
2024/04/02 02:53:59;;;;;;;1.60;1.40;;;;;;;8.45;73.94;99598.53;2490914;28;20050;-76
2024/04/02 02:55:12;;;;;;;2.55;1.02;;;;;;;8.45;74.18;99608.94;2496824;28;20119;-76
2024/04/02 02:56:25;;;;;;;1.65;0.95;;;;;;;8.42;74.50;99606.41;2501387;28;20020;-76
2024/04/02 02:57:39;;;;;;;0.90;0.80;;;;;;;8.42;74.40;99609.84;2492737;28;20460;-77
2024/04/02 02:58:52;;;;;;;1.00;0.80;;;;;;;8.43;74.25;99605.50;2474250;28;20421;-77
2024/04/02 03:00:08;;;;;;;1.92;1.17;;;;;;;8.42;74.66;99612.44;2484425;29;20030;-77
2024/04/02 03:01:21;;;;;;;2.50;1.15;;;;;;;8.42;74.66;99604.66;2493012;28;20419;-77
2024/04/02 03:02:35;;;;;;;2.95;1.00;;;;;;;8.41;74.65;99608.13;2491688;28;20062;-76
2024/04/02 03:03:49;;;;;;;1.13;0.88;;;;;;;8.40;74.65;99610.75;2485866;29;20035;-77
2024/04/02 03:05:03;;;;;;;0.75;0.73;;;;;;;8.40;74.64;99615.97;2486238;29;20034;-76
2024/04/02 03:06:17;;;;;;;1.52;1.02;;;;;;;8.37;74.72;99603.84;2492185;29;20039;-76
2024/04/02 03:07:30;;;;;;;4.35;1.10;;;;;;;8.36;75.05;99614.25;2491760;29;20066;-77
2024/04/02 03:08:44;;;;;;;1.40;1.27;;;;;;;8.35;74.58;99622.94;2492108;29;20038;-76
2024/04/02 03:09:57;;;;;;;3.42;1.10;;;;;;;8.33;74.66;99615.16;2492227;28;20476;-77
2024/04/02 03:11:10;;;;;;;1.23;0.90;;;;;;;8.32;75.13;99633.41;2493225;28;20468;-76
2024/04/02 03:12:24;;;;;;;0.95;0.80;;;;;;;8.30;75.21;99626.47;2492095;29;20061;-77
2024/04/02 03:13:37;;;;;;;3.35;1.10;;;;;;;8.29;75.55;99629.09;2491979;28;20019;-76
2024/04/02 03:14:50;;;;;;;1.50;1.25;;;;;;;8.26;75.67;99627.41;2501411;28;20019;-76
2024/04/02 03:16:04;;;;;;;1.75;1.65;;;;;;;8.24;75.69;99629.16;2495437;28;20127;-76
2024/04/02 03:17:17;;;;;;;1.10;1.00;;;;;;;8.22;76.04;99630.91;2509446;28;20024;-77
2024/04/02 03:18:31;;;;;;;2.15;0.73;;;;;;;8.20;76.10;99635.28;2491928;28;20039;-76
2024/04/02 03:19:44;;;;;;;1.75;0.70;;;;;;;8.17;76.15;99635.31;2482374;29;20030;-77
2024/04/02 03:21:01;;;;;;;1.05;0.70;;;;;;;8.15;76.52;99631.03;2485843;29;20038;-77
2024/04/02 03:22:14;;;;;;;0.90;0.90;;;;;;;8.13;77.04;99625.88;2485815;29;20479;-76
2024/04/02 03:23:28;;;;;;;1.85;1.15;;;;;;;8.11;76.75;99626.78;2490616;28;20030;-77
2024/04/02 03:24:41;;;;;;;0.98;0.93;;;;;;;8.08;76.91;99635.47;2489491;28;20736;-77
2024/04/02 03:25:55;;;;;;;1.73;0.77;;;;;;;8.07;76.98;99634.59;2484931;28;20024;-76
2024/04/02 03:27:09;;;;;;;1.05;0.88;;;;;;;8.07;77.10;99629.41;2485901;29;20480;-77
2024/04/02 03:28:23;;;;;;;1.30;1.00;;;;;;;8.06;76.95;99635.50;2485883;29;20084;-77
2024/04/02 03:29:37;;;;;;;1.35;0.88;;;;;;;8.05;77.34;99636.38;2491760;28;20384;-75
2024/04/02 03:30:50;;;;;;;1.55;0.80;;;;;;;8.07;77.20;99641.53;2491972;29;20077;-77
2024/04/02 03:32:03;;;;;;;3.50;1.05;;;;;;;8.07;77.29;99633.75;2491965;29;20031;-77
2024/04/02 03:33:17;;;;;;;1.23;0.70;;;;;;;8.06;77.01;99640.69;2491982;29;20024;-77
2024/04/02 03:34:30;;;;;;;1.27;0.95;;;;;;;8.06;77.11;99651.09;2491723;28;20035;-77
2024/04/02 03:35:43;;;;;;;0.50;0.50;;;;;;;8.05;77.19;99641.59;2492968;28;20512;-77
2024/04/02 03:36:56;;;;;;;0.98;0.80;;;;;;;8.04;77.17;99650.25;2492730;29;20019;-77
2024/04/02 03:38:11;;;;;;;1.05;1.00;;;;;;;8.03;77.21;99648.53;2491603;28;20345;-76
2024/04/02 03:39:24;;;;;;;1.48;0.95;;;;;;;8.01;77.16;99641.66;2492080;29;20384;-76
2024/04/02 03:40:41;;;;;;;3.08;1.10;;;;;;;8.01;77.43;99652.03;2492639;28;20094;-76
2024/04/02 03:41:55;;;;;;;2.40;1.02;;;;;;;7.99;77.34;99657.25;2491140;28;20019;-76
2024/04/02 03:43:09;;;;;;;8.40;1.35;;;;;;;7.99;77.87;99651.19;2491873;29;20102;-77
2024/04/02 03:44:22;;;;;;;0.80;0.80;;;;;;;7.97;77.90;99655.53;2492146;29;20015;-77
2024/04/02 03:45:39;;;;;;;3.28;1.27;;;;;;;7.94;78.13;99656.44;2492336;29;20034;-76
2024/04/02 03:46:53;;;;;;;1.80;1.17;;;;;;;7.92;77.94;99663.41;2481891;29;20123;-76
2024/04/02 03:48:07;;;;;;;1.77;0.70;;;;;;;7.91;78.07;99659.09;2486146;29;20054;-77
2024/04/02 03:49:20;;;;;;;1.75;0.93;;;;;;;7.89;78.19;99652.19;2491507;29;20086;-76
2024/04/02 03:50:36;;;;;;;2.00;1.15;;;;;;;7.86;78.39;99661.75;2477935;28;20044;-77
2024/04/02 03:51:50;;;;;;;1.02;1.00;;;;;;;7.84;78.46;99663.50;2479907;29;20144;-77
2024/04/02 03:53:06;;;;;;;4.15;1.50;;;;;;;7.82;78.55;99654.91;2492157;29;20030;-77
2024/04/02 03:54:20;;;;;;;3.22;1.33;;;;;;;7.81;78.65;99655.75;2518942;28;20045;-77
2024/04/02 03:55:35;;;;;;;1.38;1.27;;;;;;;7.80;78.66;99659.25;2514687;28;20761;-77
2024/04/02 03:56:48;;;;;;;1.50;0.90;;;;;;;7.81;78.69;99658.34;2535032;28;20048;-77
2024/04/02 03:58:02;;;;;;;1.15;0.93;;;;;;;7.81;78.51;99657.50;2491449;28;20043;-77
2024/04/02 03:59:15;;;;;;;1.02;0.93;;;;;;;7.82;78.43;99667.00;2491535;29;20111;-77
2024/04/02 04:00:29;;;;;;;0.98;0.90;;;;;;;7.81;78.86;99666.16;2492237;28;20030;-77
2024/04/02 04:01:42;;;;;;;1.10;0.93;;;;;;;7.81;78.74;99666.16;2491350;28;20062;-77
2024/04/02 04:02:56;;;;;;;1.77;1.02;;;;;;;7.80;78.90;99664.44;2491962;28;20054;-77
2024/04/02 04:04:09;;;;;;;1.63;1.13;;;;;;;7.80;78.79;99673.97;2491896;29;20050;-77
2024/04/02 04:05:23;;;;;;;0.80;0.75;;;;;;;7.78;78.81;99673.13;2491926;29;20019;-77
2024/04/02 04:06:37;;;;;;;1.48;0.98;;;;;;;7.77;78.77;99679.19;2491286;28;20419;-77
2024/04/02 04:07:51;;;;;;;1.42;0.90;;;;;;;7.76;79.06;99680.94;2491912;28;20039;-77
2024/04/02 04:09:04;;;;;;;2.38;0.60;;;;;;;7.75;78.92;99681.81;2491298;29;20058;-77
2024/04/02 04:10:17;;;;;;;1.42;1.30;;;;;;;7.75;79.09;99674.03;2485037;29;20431;-77
2024/04/02 04:11:30;;;;;;;0.88;0.70;;;;;;;7.74;79.04;99677.47;2485031;28;20050;-77
2024/04/02 04:12:44;;;;;;;1.40;1.00;;;;;;;7.75;78.99;99676.63;2491895;29;20027;-76
2024/04/02 04:14:00;;;;;;;1.75;0.75;;;;;;;7.76;78.83;99680.94;2490932;28;20032;-76
2024/04/02 04:15:13;;;;;;;1.05;0.88;;;;;;;7.77;78.60;99677.47;2491965;29;20104;-77
2024/04/02 04:16:27;;;;;;;1.40;1.10;;;;;;;7.79;78.66;99680.03;2492351;29;20438;-77
2024/04/02 04:17:41;;;;;;;2.67;0.88;;;;;;;7.79;78.46;99680.03;2491505;28;20038;-77
2024/04/02 04:18:54;;;;;;;1.08;0.80;;;;;;;7.80;78.40;99677.44;2484442;28;20718;-76
2024/04/02 04:20:08;;;;;;;2.92;0.93;;;;;;;7.81;78.18;99670.50;2491789;29;20031;-77
2024/04/02 04:21:21;;;;;;;1.17;0.90;;;;;;;7.82;77.97;99667.88;2491528;28;20149;-77
2024/04/02 04:22:34;;;;;;;2.13;1.27;;;;;;;7.85;77.89;99673.03;2491155;28;20047;-77
2024/04/02 04:23:47;;;;;;;1.35;0.95;;;;;;;7.86;77.78;99677.34;2501415;28;20027;-77
2024/04/02 04:25:03;;;;;;;2.85;1.10;;;;;;;7.88;77.67;99686.88;2498060;28;20098;-77
2024/04/02 04:26:16;;;;;;;2.45;1.00;;;;;;;7.89;77.60;99675.59;2505587;28;20505;-77
2024/04/02 04:27:33;;;;;;;0.60;0.60;;;;;;;7.89;77.23;99683.38;2504065;28;20122;-77
2024/04/02 04:28:46;;;;;;;2.40;1.13;;;;;;;7.90;77.36;99691.16;2526648;28;20024;-78
2024/04/02 04:30:00;;;;;;;0.98;0.80;;;;;;;7.91;77.44;99684.22;2487707;28;20109;-78
2024/04/02 04:31:13;;;;;;;0.75;0.75;;;;;;;7.91;77.53;99690.28;2485312;29;20054;-76
2024/04/02 04:32:26;;;;;;;1.35;0.93;;;;;;;7.91;77.21;99698.06;2485331;29;20547;-77
2024/04/02 04:33:39;;;;;;;1.55;1.20;;;;;;;7.93;77.31;99693.72;2488170;28;20019;-77
2024/04/02 04:34:53;;;;;;;3.70;0.85;;;;;;;7.93;77.11;99698.91;2496470;28;20025;-77
2024/04/02 04:36:06;;;;;;;0.82;0.70;;;;;;;7.96;77.04;99698.00;2492263;28;20054;-77
2024/04/02 04:37:19;;;;;;;3.20;1.38;;;;;;;7.97;76.78;99692.78;2491199;29;20539;-77
2024/04/02 04:38:34;;;;;;;5.57;0.98;;;;;;;7.98;77.01;99696.25;2484373;28;20431;-77
2024/04/02 04:39:47;;;;;;;1.35;0.90;;;;;;;7.99;76.94;99700.56;2485228;29;20046;-77
2024/04/02 04:41:01;;;;;;;3.45;1.33;;;;;;;7.99;76.94;99698.81;2491784;28;20392;-76
2024/04/02 04:42:14;;;;;;;1.83;0.90;;;;;;;7.99;77.05;99700.56;2491716;28;20459;-77
2024/04/02 04:43:27;;;;;;;2.53;1.10;;;;;;;8.00;77.08;99702.28;2492295;29;20487;-76
2024/04/02 04:44:44;;;;;;;1.92;1.15;;;;;;;7.98;76.87;99717.03;2492224;28;20041;-76
2024/04/02 04:46:01;;;;;;;2.17;1.17;;;;;;;7.95;77.25;99704.06;2491597;28;20058;-77
2024/04/02 04:47:14;;;;;;;4.82;2.70;;;;;;;7.92;77.13;99712.75;2481710;28;20058;-76
2024/04/02 04:48:27;;;;;;;1.73;1.63;;;;;;;7.91;77.49;99708.47;2482481;29;20031;-77
2024/04/02 04:49:40;;;;;;;2.10;1.52;;;;;;;7.89;77.54;99707.59;2490761;28;20057;-76
2024/04/02 04:51:04;;;;;;;3.88;0.70;;;;;;;7.86;77.74;99711.09;2484918;28;20015;-77
2024/04/02 04:52:17;;;;;;;3.42;0.95;;;;;;;7.86;77.89;99718.91;2486432;29;20126;-77
2024/04/02 04:53:32;;;;;;;3.13;0.90;;;;;;;7.86;78.00;99718.91;2491625;29;20033;-77
2024/04/02 04:54:45;;;;;;;2.15;1.65;;;;;;;7.87;77.82;99724.94;2490979;28;20086;-77
2024/04/02 04:56:00;;;;;;;3.45;1.35;;;;;;;7.86;77.94;99723.25;2491241;29;20027;-77
2024/04/02 04:57:13;;;;;;;2.13;1.20;;;;;;;7.85;77.95;99734.53;2481689;29;20039;-77
2024/04/02 04:58:27;;;;;;;2.85;0.57;;;;;;;7.84;78.18;99731.03;2468971;29;20114;-77
2024/04/02 04:59:40;;;;;;;5.93;1.85;;;;;;;7.84;78.41;99736.22;2488649;28;20053;-77
2024/04/02 05:00:54;;;;;;;1.33;0.77;;;;;;;7.83;78.15;99739.72;2491309;29;20027;-77
2024/04/02 05:02:07;;;;;;;2.83;1.10;;;;;;;7.83;78.32;99741.47;2482562;28;20119;-77
2024/04/02 05:03:21;;;;;;;0.80;0.80;;;;;;;7.81;78.46;99744.06;2485067;28;20026;-77
2024/04/02 05:04:34;;;;;;;3.75;0.80;;;;;;;7.80;78.61;99737.16;2485194;28;20023;-77
2024/04/02 05:05:47;;;;;;;0.73;0.73;;;;;;;7.80;78.63;99747.56;2484591;28;20031;-77
2024/04/02 05:07:01;;;;;;;0.77;0.50;;;;;;;7.80;78.63;99741.50;2485105;29;20130;-77
2024/04/02 05:08:21;;;;;;;2.85;0.80;;;;;;;7.77;78.55;99739.81;2491516;29;20109;-77
2024/04/02 05:09:34;;;;;;;1.05;0.80;;;;;;;7.78;78.68;99743.25;2492006;28;20050;-78
2024/04/02 05:10:49;;;;;;;3.33;1.00;;;;;;;7.75;78.82;99744.16;2491514;28;20397;-78
2024/04/02 05:12:03;;;;;;;1.33;0.80;;;;;;;7.74;78.88;99739.81;2490928;29;20031;-77
2024/04/02 05:13:16;;;;;;;1.10;0.90;;;;;;;7.73;78.93;99745.91;2485092;29;20027;-78
2024/04/02 05:14:30;;;;;;;1.23;1.10;;;;;;;7.73;79.17;99751.09;2485477;28;20045;-77
2024/04/02 05:15:43;;;;;;;1.02;0.70;;;;;;;7.73;79.35;99758.88;2491661;29;20627;-77
2024/04/02 05:16:56;;;;;;;0.60;0.60;;;;;;;7.72;79.24;99757.19;2492676;28;20385;-77
2024/04/02 05:18:11;;;;;;;1.05;0.70;;;;;;;7.73;79.08;99774.47;2491131;29;20042;-77
2024/04/02 05:19:25;;;;;;;1.85;0.80;;;;;;;7.73;79.39;99755.44;2500711;28;20023;-77
2024/04/02 05:20:38;;;;;;;1.73;0.68;;;;;;;7.74;79.38;99763.19;2488687;29;20614;-77
2024/04/02 05:21:51;;;;;;;4.30;1.10;;;;;;;7.76;79.48;99777.03;2471493;28;20059;-77
2024/04/02 05:23:05;;;;;;;1.35;1.10;;;;;;;7.77;79.58;99775.28;2475738;29;20500;-78
2024/04/02 05:24:18;;;;;;;5.18;0.70;;;;;;;7.77;79.22;99775.28;2485148;29;20519;-78
2024/04/02 05:25:32;;;;;;;0.43;0.40;;;;;;;7.75;79.50;99777.06;2491283;29;20452;-77
2024/04/02 05:26:45;;;;;;;0.70;0.70;;;;;;;7.72;79.61;99783.16;2471652;28;20464;-76
2024/04/02 05:27:59;;;;;;;1.23;0.60;;;;;;;7.69;79.57;99775.38;2478438;29;20027;-77
2024/04/02 05:29:12;;;;;;;2.97;0.88;;;;;;;7.67;79.84;99787.53;2490839;29;20081;-76
2024/04/02 05:30:26;;;;;;;4.60;1.13;;;;;;;7.65;79.82;99784.94;2484395;29;20042;-77
2024/04/02 05:31:39;;;;;;;6.55;0.88;;;;;;;7.61;79.96;99782.38;2484377;29;20050;-76
2024/04/02 05:32:53;;;;;;;0.60;0.60;;;;;;;7.58;79.95;99780.69;2491194;29;20016;-77
2024/04/02 05:34:06;;;;;;;2.33;1.30;;;;;;;7.56;80.25;99784.16;2490821;28;20033;-76
2024/04/02 05:35:20;;;;;;;0.70;0.65;;;;;;;7.53;80.50;99784.22;2497420;28;20023;-77
2024/04/02 05:36:34;;;;;;;0.98;0.70;;;;;;;7.51;80.77;99788.56;2485002;29;20050;-76
2024/04/02 05:37:51;;;;;;;0.50;0.50;;;;;;;7.49;80.61;99790.31;2484360;28;20129;-77
2024/04/02 05:39:05;;;;;;;1.38;0.82;;;;;;;7.47;80.98;99785.13;2533657;28;20125;-77
2024/04/02 05:40:19;;;;;;;2.33;0.70;;;;;;;7.47;80.68;99797.25;2521601;28;20537;-77
2024/04/02 05:41:32;;;;;;;1.05;0.80;;;;;;;7.46;80.93;99785.13;2495858;28;20027;-76
2024/04/02 05:42:46;;;;;;;2.33;0.75;;;;;;;7.45;80.94;99799.84;2494157;28;20024;-77
2024/04/02 05:43:59;;;;;;;1.63;0.80;;;;;;;7.45;81.33;99804.19;2481145;29;20048;-76
2024/04/02 05:45:14;;;;;;;1.75;0.73;;;;;;;7.44;81.50;99803.34;2484814;29;20027;-77
2024/04/02 05:46:27;;;;;;;2.72;1.45;;;;;;;7.42;81.49;99799.91;2490399;28;20035;-76
2024/04/02 05:47:41;;;;;;;0.95;0.93;;;;;;;7.42;81.61;99811.13;2491302;29;20058;-76
2024/04/02 05:48:54;;;;;;;1.83;0.68;;;;;;;7.42;81.45;99813.72;2492287;28;20030;-76
2024/04/02 05:50:08;;;;;;;0.95;0.82;;;;;;;7.41;81.67;99813.75;2523358;28;20507;-76
2024/04/02 05:51:21;;;;;;;0.60;0.60;;;;;;;7.40;81.54;99818.06;2490971;29;20027;-77